createdAt,value
2019-01-10T00:01:24.503Z,174.00
2019-01-10T00:03:55.219Z,161.20
2019-01-10T00:06:25.934Z,143.13
2019-01-10T00:08:56.433Z,162.80
2019-01-10T00:11:27.038Z,175.73
2019-01-10T00:13:57.471Z,180.07
2019-01-10T00:16:28.240Z,167.20
2019-01-10T00:18:58.778Z,180.97
2019-01-10T00:21:29.254Z,187.10
2019-01-10T00:23:59.831Z,166.00
2019-01-10T00:26:30.506Z,168.10
2019-01-10T00:29:01.051Z,172.13
2019-01-10T00:31:31.870Z,194.87
2019-01-10T00:34:02.316Z,173.73
2019-01-10T00:36:32.852Z,195.10
2019-01-10T00:39:03.584Z,174.97
2019-01-10T00:41:35.170Z,170.80
2019-01-10T00:44:05.882Z,185.30
2019-01-10T00:46:36.506Z,168.73
2019-01-10T00:49:06.961Z,174.13
2019-01-10T00:51:37.709Z,186.67
2019-01-10T00:54:08.263Z,165.57
2019-01-10T00:56:39.099Z,166.47
2019-01-10T00:59:09.631Z,169.30
2019-01-10T01:01:40.085Z,154.27
2019-01-10T01:04:10.514Z,185.10
2019-01-10T01:06:41.234Z,157.53
2019-01-10T01:09:11.895Z,162.77
2019-01-10T01:11:42.422Z,168.57
2019-01-10T01:14:12.875Z,176.47
2019-01-10T01:16:43.398Z,182.47
2019-01-10T01:19:14.065Z,156.60
2019-01-10T01:21:44.500Z,117.30
2019-01-10T01:24:15.041Z,171.50
2019-01-10T01:26:45.667Z,152.80
2019-01-10T01:29:16.130Z,149.60
2019-01-10T01:31:46.748Z,165.93
2019-01-10T01:34:17.729Z,150.30
2019-01-10T01:36:48.299Z,142.73
2019-01-10T01:39:19.160Z,128.47
2019-01-10T01:41:49.827Z,161.43
2019-01-10T01:44:20.385Z,146.63
2019-01-10T01:46:51.025Z,173.77
2019-01-10T01:49:21.974Z,130.67
2019-01-10T01:51:52.497Z,164.20
2019-01-10T01:54:23.120Z,167.87
2019-01-10T01:56:54.100Z,156.50
2019-01-10T01:59:24.770Z,172.67
2019-01-10T02:01:55.380Z,157.27
2019-01-10T02:04:25.916Z,138.73
2019-01-10T02:06:57.804Z,142.63
2019-01-10T02:09:28.760Z,162.63
2019-01-10T02:11:59.426Z,153.10
2019-01-10T02:14:29.863Z,140.00
2019-01-10T02:17:00.468Z,166.67
2019-01-10T02:19:31.372Z,147.73
2019-01-10T02:22:01.956Z,160.70
2019-01-10T02:24:32.723Z,144.13
2019-01-10T02:27:03.275Z,162.87
2019-01-10T02:29:33.842Z,144.47
2019-01-10T02:32:04.333Z,147.57
2019-01-10T02:34:35.173Z,155.07
2019-01-10T02:37:05.933Z,152.13
2019-01-10T02:39:36.475Z,161.87
2019-01-10T02:42:07.207Z,154.00
2019-01-10T02:44:37.952Z,147.73
2019-01-10T02:47:08.597Z,149.20
2019-01-10T02:49:39.169Z,138.80
2019-01-10T02:52:09.682Z,140.00
2019-01-10T02:54:40.185Z,156.73
2019-01-10T02:57:10.746Z,140.80
2019-01-10T02:59:40.932Z,142.97
2019-01-10T03:02:11.532Z,160.77
2019-01-10T03:04:42.267Z,159.37
2019-01-10T03:07:12.804Z,152.57
2019-01-10T03:09:43.326Z,154.90
2019-01-10T03:12:15.854Z,136.03
2019-01-10T03:14:46.360Z,141.83
2019-01-10T03:17:17.927Z,135.87
2019-01-10T03:19:48.540Z,128.63
2019-01-10T03:22:18.933Z,154.97
2019-01-10T03:24:49.522Z,150.93
2019-01-10T03:27:20.278Z,160.43
2019-01-10T03:29:50.705Z,155.00
2019-01-10T03:32:21.380Z,162.97
2019-01-10T03:34:51.944Z,155.80
2019-01-10T03:37:22.416Z,155.17
2019-01-10T03:39:53.160Z,149.00
2019-01-10T03:42:23.886Z,154.20
2019-01-10T03:44:54.627Z,157.27
2019-01-10T03:47:25.303Z,149.77
2019-01-10T03:49:56.036Z,147.80
2019-01-10T03:52:26.740Z,138.27
2019-01-10T03:54:57.405Z,161.80
2019-01-10T03:57:27.893Z,170.93
2019-01-10T03:59:58.369Z,160.00
2019-01-10T04:02:28.961Z,152.83
2019-01-10T04:05:00.977Z,143.87
2019-01-10T04:07:34.167Z,146.13
2019-01-10T04:10:05.159Z,149.80
2019-01-10T04:12:35.584Z,160.60
2019-01-10T04:15:06.354Z,169.10
2019-01-10T04:17:37.030Z,158.20
2019-01-10T04:20:08.486Z,179.47
2019-01-10T04:22:39.013Z,163.50
2019-01-10T04:25:10.001Z,174.00
2019-01-10T04:27:42.286Z,160.63
2019-01-10T04:30:15.954Z,157.27
2019-01-10T04:32:46.679Z,157.70
2019-01-10T04:35:17.263Z,180.40
2019-01-10T04:37:47.823Z,170.53
2019-01-10T04:40:20.339Z,144.90
2019-01-10T04:42:50.806Z,181.13
2019-01-10T04:45:21.656Z,164.17
2019-01-10T04:47:52.097Z,166.33
2019-01-10T04:50:22.608Z,162.20
2019-01-10T04:52:53.306Z,164.00
2019-01-10T04:55:23.838Z,158.07
2019-01-10T04:57:54.616Z,141.90
2019-01-10T05:00:26.045Z,146.97
2019-01-10T05:02:56.838Z,167.47
2019-01-10T05:05:27.512Z,147.47
2019-01-10T05:07:59.652Z,165.00
2019-01-10T05:10:30.521Z,168.70
2019-01-10T05:13:01.240Z,228.77
2019-01-10T05:15:31.883Z,211.77
2019-01-10T05:18:02.343Z,265.63
2019-01-10T05:20:32.916Z,185.10
2019-01-10T05:23:03.477Z,206.17
2019-01-10T05:25:34.002Z,178.63
2019-01-10T05:28:04.889Z,196.97
2019-01-10T05:30:35.723Z,195.80
2019-01-10T05:33:06.297Z,188.17
2019-01-10T05:35:37.492Z,170.97
2019-01-10T05:38:08.144Z,174.57
2019-01-10T05:40:38.671Z,176.27
2019-01-10T05:43:09.225Z,189.03
2019-01-10T05:45:40.337Z,173.67
2019-01-10T05:48:11.126Z,170.30
2019-01-10T05:50:43.695Z,170.47
2019-01-10T05:53:13.931Z,138.97
2019-01-10T05:55:44.657Z,134.53
2019-01-10T05:58:15.437Z,139.83
2019-01-10T06:00:46.072Z,109.10
2019-01-10T06:03:16.508Z,125.53
2019-01-10T06:05:47.004Z,131.80
2019-01-10T06:08:17.533Z,123.73
2019-01-10T06:10:48.046Z,126.60
2019-01-10T06:13:18.524Z,123.17
2019-01-10T06:15:49.388Z,121.67
2019-01-10T06:18:19.996Z,136.23
2019-01-10T06:20:50.959Z,123.17
2019-01-10T06:23:22.675Z,125.70
2019-01-10T06:25:53.462Z,122.20
2019-01-10T06:28:24.536Z,109.93
2019-01-10T06:30:55.080Z,118.30
2019-01-10T06:33:25.832Z,115.27
2019-01-10T06:35:56.343Z,105.17
2019-01-10T06:38:26.786Z,109.90
2019-01-10T06:40:57.534Z,87.73
2019-01-10T06:43:28.166Z,102.50
2019-01-10T06:45:58.897Z,97.23
2019-01-10T06:48:29.818Z,99.07
2019-01-10T06:51:00.662Z,90.77
2019-01-10T06:53:31.448Z,100.13
2019-01-10T06:56:02.107Z,93.90
2019-01-10T06:58:32.832Z,99.53
2019-01-10T07:01:03.736Z,91.20
2019-01-10T07:03:34.879Z,87.07
2019-01-10T07:06:05.537Z,85.67
2019-01-10T07:08:36.589Z,81.40
2019-01-10T07:11:07.491Z,82.43
2019-01-10T07:13:38.291Z,85.70
2019-01-10T07:16:09.268Z,83.80
2019-01-10T07:18:40.208Z,81.13
2019-01-10T07:21:11.147Z,83.50
2019-01-10T07:23:47.121Z,79.43
2019-01-10T07:26:17.879Z,74.87
2019-01-10T07:28:48.815Z,75.10
2019-01-10T07:31:29.015Z,73.87
2019-01-10T07:34:05.642Z,80.13
2019-01-10T07:36:36.278Z,84.77
2019-01-10T07:39:09.409Z,78.97
2019-01-10T07:41:42.603Z,82.07
2019-01-10T07:44:14.177Z,77.40
2019-01-10T07:46:47.849Z,82.23
2019-01-10T07:49:22.413Z,85.50
2019-01-10T07:51:53.260Z,71.20
2019-01-10T07:54:23.816Z,85.70
2019-01-10T07:56:54.992Z,79.17
2019-01-10T07:59:25.753Z,81.97
2019-01-10T08:01:56.718Z,83.23
2019-01-10T08:04:27.355Z,90.87
2019-01-10T08:06:58.064Z,81.83
2019-01-10T08:09:28.734Z,87.20
2019-01-10T08:12:00.650Z,82.77
2019-01-10T08:14:31.394Z,84.90
2019-01-10T08:17:02.050Z,75.07
2019-01-10T08:19:33.038Z,89.63
2019-01-10T08:22:03.840Z,91.47
2019-01-10T08:24:34.403Z,86.20
2019-01-10T08:27:05.161Z,94.00
2019-01-10T08:29:35.846Z,75.20
2019-01-10T08:32:06.388Z,79.23
2019-01-10T08:34:36.955Z,75.53
2019-01-10T08:37:07.643Z,86.60
2019-01-10T08:39:38.302Z,87.20
2019-01-10T08:42:09.456Z,86.67
2019-01-10T08:44:41.086Z,93.43
2019-01-10T08:47:11.769Z,86.87
2019-01-10T08:49:42.744Z,77.63
2019-01-10T08:52:14.129Z,88.57
2019-01-10T08:54:44.835Z,88.90
2019-01-10T08:57:15.771Z,89.00
2019-01-10T08:59:46.789Z,85.20
2019-01-10T09:02:17.586Z,90.00
2019-01-10T09:04:48.293Z,88.40
2019-01-10T09:07:19.143Z,98.17
2019-01-10T09:09:50.211Z,92.87
2019-01-10T09:12:21.028Z,85.73
2019-01-10T09:14:51.942Z,87.50
2019-01-10T09:17:22.673Z,80.43
2019-01-10T09:19:53.568Z,83.37
2019-01-10T09:22:24.226Z,89.73
2019-01-10T09:24:55.208Z,81.23
2019-01-10T09:27:25.993Z,94.00
2019-01-10T09:29:57.023Z,89.33
2019-01-10T09:32:27.683Z,89.47
2019-01-10T09:34:58.420Z,90.40
2019-01-10T09:37:28.977Z,88.67
2019-01-10T09:39:59.941Z,91.27
2019-01-10T09:42:30.767Z,72.77
2019-01-10T09:45:02.779Z,85.10
2019-01-10T09:47:33.569Z,76.17
2019-01-10T09:50:05.015Z,80.40
2019-01-10T09:52:35.969Z,75.27
2019-01-10T09:55:07.216Z,73.93
2019-01-10T09:57:37.964Z,81.47
2019-01-10T10:00:15.692Z,73.27
2019-01-10T10:02:46.255Z,76.23
2019-01-10T10:05:16.941Z,76.23
2019-01-10T10:07:47.701Z,79.23
2019-01-10T10:10:19.168Z,70.73
2019-01-10T10:12:49.938Z,73.80
2019-01-10T10:15:21.370Z,70.80
2019-01-10T10:17:52.077Z,71.70
2019-01-10T10:20:24.514Z,61.43
2019-01-10T10:22:55.411Z,71.63
2019-01-10T10:25:26.308Z,68.33
2019-01-10T10:27:57.282Z,67.50
2019-01-10T10:30:27.836Z,80.07
2019-01-10T10:32:58.350Z,77.57
2019-01-10T10:35:29.051Z,80.43
2019-01-10T10:37:59.578Z,72.77
2019-01-10T10:40:30.356Z,82.30
2019-01-10T10:43:01.208Z,77.50
2019-01-10T10:45:31.866Z,75.53
2019-01-10T10:48:02.627Z,79.67
2019-01-10T10:50:33.366Z,74.33
2019-01-10T10:53:05.683Z,72.53
2019-01-10T10:55:36.582Z,78.90
2019-01-10T10:58:07.231Z,70.40
2019-01-10T11:00:38.340Z,88.27
2019-01-10T11:03:08.995Z,86.30
2019-01-10T11:05:40.191Z,74.73
2019-01-10T11:08:10.632Z,79.13
2019-01-10T11:10:41.418Z,79.83
2019-01-10T11:13:12.261Z,81.23
2019-01-10T11:15:42.989Z,76.33
2019-01-10T11:18:13.453Z,77.37
2019-01-10T11:20:44.136Z,94.60
2019-01-10T11:23:14.860Z,95.17
2019-01-10T11:25:45.629Z,92.13
2019-01-10T11:28:16.021Z,95.90
2019-01-10T11:30:46.739Z,103.37
2019-01-10T11:33:17.556Z,107.67
2019-01-10T11:35:48.253Z,109.00
2019-01-10T11:38:18.757Z,100.97
2019-01-10T11:40:49.269Z,107.57
2019-01-10T11:43:20.295Z,115.80
2019-01-10T11:45:51.005Z,111.70
2019-01-10T11:48:21.773Z,106.80
2019-01-10T11:50:52.784Z,104.93
2019-01-10T11:53:23.574Z,110.97
2019-01-10T11:55:54.389Z,111.77
2019-01-10T11:58:25.046Z,105.00
2019-01-10T12:00:55.960Z,128.50
2019-01-10T12:03:26.441Z,107.63
2019-01-10T12:05:57.070Z,122.37
2019-01-10T12:08:27.743Z,104.63
2019-01-10T12:10:58.543Z,112.03
2019-01-10T12:13:29.060Z,115.67
2019-01-10T12:15:59.913Z,99.67
2019-01-10T12:18:30.726Z,104.67
2019-01-10T12:21:01.443Z,94.53
2019-01-10T12:23:31.908Z,93.63
2019-01-10T12:26:04.686Z,101.63
2019-01-10T12:28:35.261Z,85.83
2019-01-10T12:31:06.037Z,91.50
2019-01-10T12:33:36.801Z,85.17
2019-01-10T12:36:07.527Z,87.07
2019-01-10T12:38:38.201Z,83.00
2019-01-10T12:41:08.835Z,90.00
2019-01-10T12:43:40.109Z,97.40
2019-01-10T12:46:12.119Z,84.63
2019-01-10T12:48:44.407Z,83.17
2019-01-10T12:51:16.868Z,91.90
2019-01-10T12:53:47.601Z,87.33
2019-01-10T12:56:19.945Z,83.57
2019-01-10T12:58:50.669Z,88.60
2019-01-10T13:01:21.318Z,85.63
2019-01-10T13:03:53.021Z,90.80
2019-01-10T13:06:23.740Z,96.20
2019-01-10T13:08:54.697Z,88.07
2019-01-10T13:11:25.307Z,90.67
2019-01-10T13:13:56.333Z,85.60
2019-01-10T13:16:27.064Z,86.00
2019-01-10T13:18:57.703Z,85.73
2019-01-10T13:21:28.363Z,86.13
2019-01-10T13:23:58.948Z,96.13
2019-01-10T13:26:29.672Z,87.83
2019-01-10T13:29:00.400Z,79.23
2019-01-10T13:31:31.337Z,83.53
2019-01-10T13:34:09.549Z,73.63
2019-01-10T13:36:40.734Z,85.90
2019-01-10T13:39:11.309Z,76.17
2019-01-10T13:41:42.089Z,85.27
2019-01-10T13:44:12.878Z,76.40
2019-01-10T13:46:43.894Z,87.67
2019-01-10T13:49:14.818Z,72.37
2019-01-10T13:51:46.510Z,80.00
2019-01-10T13:54:17.342Z,76.27
2019-01-10T13:56:47.868Z,74.53
2019-01-10T13:59:19.563Z,77.60
2019-01-10T14:01:50.133Z,80.10
2019-01-10T14:04:20.794Z,74.80
2019-01-10T14:06:51.333Z,85.00
2019-01-10T14:09:22.079Z,82.90
2019-01-10T14:11:52.693Z,101.00
2019-01-10T14:14:23.280Z,95.60
2019-01-10T14:16:54.029Z,109.03
2019-01-10T14:19:24.615Z,90.27
2019-01-10T14:21:55.457Z,72.93
2019-01-10T14:24:26.411Z,94.17
2019-01-10T14:26:57.053Z,96.20
2019-01-10T14:29:27.948Z,105.37
2019-01-10T14:31:58.715Z,97.37
2019-01-10T14:34:29.227Z,99.73
2019-01-10T14:36:59.984Z,83.37
2019-01-10T14:39:31.384Z,75.37
2019-01-10T14:42:02.881Z,83.57
2019-01-10T14:44:33.500Z,98.07
2019-01-10T14:47:07.621Z,89.33
2019-01-10T14:49:36.603Z,97.03
2019-01-10T14:52:07.465Z,90.60
2019-01-10T14:54:38.066Z,83.97
2019-01-10T14:57:09.148Z,101.63
2019-01-10T14:59:42.711Z,87.87
2019-01-10T15:02:13.697Z,106.83
2019-01-10T15:04:44.717Z,92.73
2019-01-10T15:07:15.845Z,78.87
2019-01-10T15:09:48.298Z,92.10
2019-01-10T15:12:19.097Z,92.77
2019-01-10T15:14:49.789Z,89.03
2019-01-10T15:17:20.680Z,97.60
2019-01-10T15:19:51.559Z,88.13
2019-01-10T15:22:22.205Z,98.70
2019-01-10T15:24:52.828Z,80.40
2019-01-10T15:27:23.765Z,78.30
2019-01-10T15:29:54.397Z,79.37
2019-01-10T15:32:25.010Z,91.50
2019-01-10T15:34:56.989Z,86.80
2019-01-10T15:37:27.840Z,87.53
2019-01-10T15:39:58.826Z,84.20
2019-01-10T15:42:29.420Z,90.53
2019-01-10T15:45:00.003Z,87.87
2019-01-10T15:47:30.718Z,81.10
2019-01-10T15:50:01.617Z,88.07
2019-01-10T15:52:32.437Z,75.97
2019-01-10T15:55:04.639Z,92.67
2019-01-10T15:57:35.241Z,93.17
2019-01-10T16:00:07.967Z,89.10
2019-01-10T16:02:38.979Z,98.03
2019-01-10T16:05:09.774Z,86.67
2019-01-10T16:07:40.431Z,112.93
2019-01-10T16:10:12.549Z,101.63
2019-01-10T16:12:43.303Z,98.03
2019-01-10T16:15:16.633Z,86.90
2019-01-10T16:17:48.066Z,101.23
2019-01-10T16:20:18.813Z,104.30
2019-01-10T16:22:49.598Z,96.97
2019-01-10T16:25:20.719Z,93.27
2019-01-10T16:27:51.579Z,172.50
2019-01-10T16:30:28.170Z,112.50
2019-01-10T16:32:59.001Z,110.87
2019-01-10T16:35:29.982Z,101.63
2019-01-10T16:38:00.903Z,98.30
2019-01-10T16:40:31.694Z,110.87
2019-01-10T16:43:02.791Z,105.87
2019-01-10T16:45:34.594Z,112.90
2019-01-10T16:48:06.266Z,106.07
2019-01-10T16:50:36.860Z,112.40
2019-01-10T16:53:07.718Z,112.47
2019-01-10T16:55:38.553Z,109.03
2019-01-10T16:58:09.167Z,112.53
2019-01-10T17:00:39.902Z,118.80
2019-01-10T17:03:10.698Z,117.90
2019-01-10T17:05:41.510Z,106.77
2019-01-10T17:08:12.270Z,118.53
2019-01-10T17:10:42.787Z,112.87
2019-01-10T17:13:13.641Z,114.00
2019-01-10T17:15:44.509Z,107.73
2019-01-10T17:18:15.436Z,98.07
2019-01-10T17:20:46.116Z,99.37
2019-01-10T17:23:17.057Z,87.90
2019-01-10T17:25:48.044Z,81.87
2019-01-10T17:28:18.949Z,85.57
2019-01-10T17:30:50.095Z,92.77
2019-01-10T17:33:21.003Z,85.57
2019-01-10T17:35:51.802Z,76.10
2019-01-10T17:38:22.733Z,77.17
2019-01-10T17:40:53.375Z,88.07
2019-01-10T17:43:23.986Z,87.67
2019-01-10T17:45:56.076Z,86.60
2019-01-10T17:48:27.041Z,82.07
2019-01-10T17:50:57.716Z,96.30
2019-01-10T17:53:28.634Z,89.83
2019-01-10T17:55:59.481Z,84.17
2019-01-10T17:58:30.394Z,76.73
2019-01-10T18:01:01.672Z,88.63
2019-01-10T18:03:39.936Z,84.37
2019-01-10T18:06:06.199Z,76.97
2019-01-10T18:08:36.912Z,67.60
2019-01-10T18:11:07.654Z,58.77
2019-01-10T18:13:39.539Z,65.07
2019-01-10T18:16:10.688Z,74.90
2019-01-10T18:18:41.818Z,70.30
2019-01-10T18:21:15.097Z,89.13
2019-01-10T18:23:45.762Z,84.33
2019-01-10T18:26:16.881Z,72.77
2019-01-10T18:28:47.897Z,71.77
2019-01-10T18:31:20.525Z,78.87
2019-01-10T18:33:51.465Z,78.93
2019-01-10T18:36:22.371Z,83.13
2019-01-10T18:38:53.476Z,70.57
2019-01-10T18:41:24.525Z,70.53
2019-01-10T18:43:55.479Z,76.40
2019-01-10T18:46:26.340Z,78.27
2019-01-10T18:48:57.739Z,79.57
2019-01-10T18:51:28.772Z,75.30
2019-01-10T18:53:59.893Z,88.63
2019-01-10T18:56:30.718Z,86.93
2019-01-10T18:59:01.483Z,77.90
2019-01-10T19:01:32.610Z,89.40
2019-01-10T19:04:03.470Z,89.00
2019-01-10T19:06:34.584Z,87.47
2019-01-10T19:09:08.592Z,85.10
2019-01-10T19:11:40.300Z,86.63
2019-01-10T19:14:11.316Z,93.07
2019-01-10T19:16:42.313Z,75.17
2019-01-10T19:19:13.171Z,77.67
2019-01-10T19:21:43.960Z,76.00
2019-01-10T19:24:15.769Z,85.80
2019-01-10T19:26:46.806Z,90.53
2019-01-10T19:29:17.618Z,90.27
2019-01-10T19:31:48.486Z,85.87
2019-01-10T19:34:19.240Z,84.20
2019-01-10T19:36:49.827Z,91.57
2019-01-10T19:39:20.584Z,85.97
2019-01-10T19:41:51.211Z,87.50
2019-01-10T19:44:21.813Z,91.27
2019-01-10T19:46:52.431Z,79.90
2019-01-10T19:49:23.340Z,96.40
2019-01-10T19:51:54.231Z,86.47
2019-01-10T19:54:25.130Z,78.43
2019-01-10T19:56:56.594Z,90.53
2019-01-10T19:59:27.671Z,87.67
2019-01-10T20:01:58.709Z,87.63
2019-01-10T20:04:29.499Z,94.33
2019-01-10T20:07:00.482Z,77.63
2019-01-10T20:09:31.790Z,86.00
2019-01-10T20:12:03.111Z,79.57
2019-01-10T20:14:34.730Z,92.47
2019-01-10T20:17:05.932Z,99.77
2019-01-10T20:19:37.153Z,80.17
2019-01-10T20:22:08.502Z,88.07
2019-01-10T20:24:40.143Z,88.83
2019-01-10T20:27:12.192Z,90.80
2019-01-10T20:29:43.081Z,87.97
2019-01-10T20:32:13.995Z,92.30
2019-01-10T20:34:44.686Z,94.23
2019-01-10T20:37:15.678Z,98.37
2019-01-10T20:39:46.654Z,94.37
2019-01-10T20:42:17.414Z,93.10
2019-01-10T20:44:48.679Z,93.10
2019-01-10T20:47:19.696Z,101.77
2019-01-10T20:49:51.254Z,102.43
2019-01-10T20:52:23.506Z,85.93
2019-01-10T20:54:54.679Z,94.03
2019-01-10T20:57:25.747Z,100.23
2019-01-10T20:59:57.711Z,95.83
2019-01-10T21:02:29.560Z,79.57
2019-01-10T21:05:00.743Z,103.30
2019-01-10T21:07:32.079Z,81.17
2019-01-10T21:10:03.035Z,100.43
2019-01-10T21:12:34.145Z,108.27
2019-01-10T21:15:05.849Z,96.93
2019-01-10T21:17:36.874Z,91.67
2019-01-10T21:20:08.042Z,106.00
2019-01-10T21:22:38.718Z,97.43
2019-01-10T21:25:11.311Z,103.13
2019-01-10T21:27:42.769Z,99.37
2019-01-10T21:30:15.881Z,101.13
2019-01-10T21:32:47.577Z,100.10
2019-01-10T21:35:19.562Z,188.40
2019-01-10T21:37:50.762Z,102.53
2019-01-10T21:40:23.079Z,94.57
2019-01-10T21:42:54.595Z,88.90
2019-01-10T21:45:25.508Z,99.97
2019-01-10T21:47:56.451Z,99.47
2019-01-10T21:50:27.745Z,98.97
2019-01-10T21:52:58.990Z,95.90
2019-01-10T21:55:29.874Z,97.23
2019-01-10T21:58:00.728Z,94.07
2019-01-10T22:00:32.094Z,82.13
2019-01-10T22:03:03.488Z,122.47
2019-01-10T22:05:34.459Z,106.40
2019-01-10T22:08:08.933Z,107.60
2019-01-10T22:10:39.961Z,102.57
2019-01-10T22:13:10.813Z,98.37
2019-01-10T22:15:41.834Z,110.77
2019-01-10T22:18:12.557Z,111.17
2019-01-10T22:20:44.568Z,106.27
2019-01-10T22:23:15.065Z,99.70
2019-01-10T22:25:45.908Z,118.27
2019-01-10T22:28:16.840Z,107.17
2019-01-10T22:30:47.444Z,115.60
2019-01-10T22:33:18.000Z,117.93
2019-01-10T22:35:49.038Z,126.20
2019-01-10T22:38:19.620Z,88.53
2019-01-10T22:40:50.506Z,107.60
2019-01-10T22:43:21.066Z,109.33
2019-01-10T22:45:51.719Z,110.13
2019-01-10T22:48:22.468Z,116.80
2019-01-10T22:50:53.473Z,103.50
2019-01-10T22:53:24.487Z,105.37
2019-01-10T22:55:55.481Z,90.47
2019-01-10T22:58:26.062Z,106.70
2019-01-10T23:01:32.005Z,111.40
2019-01-10T23:04:03.049Z,106.27
2019-01-10T23:06:33.857Z,115.67
2019-01-10T23:09:08.041Z,114.67
2019-01-10T23:11:40.399Z,111.47
2019-01-10T23:14:11.271Z,94.30
2019-01-10T23:16:42.023Z,116.27
2019-01-10T23:19:12.958Z,108.63
2019-01-10T23:21:43.935Z,116.10
2019-01-10T23:24:26.642Z,114.90
2019-01-10T23:26:56.498Z,104.20
2019-01-10T23:29:33.601Z,105.50
2019-01-10T23:32:12.914Z,107.07
2019-01-10T23:34:50.284Z,119.10
2019-01-10T23:37:25.071Z,119.83
2019-01-10T23:39:56.515Z,116.77
2019-01-10T23:42:27.317Z,119.77
2019-01-10T23:44:58.880Z,108.80
2019-01-10T23:47:29.630Z,104.97
2019-01-10T23:50:01.422Z,112.27
2019-01-10T23:52:32.002Z,127.77
2019-01-10T23:55:02.702Z,121.23
2019-01-10T23:57:33.779Z,101.73
